Time;durP1;ratioP1;P1;durP2;ratioP2;P2;SDS_P1;SDS_P2;PMS_P1;PMS_P2;Temp;Humidity;BMP_temperature;BMP_pressure;BME280_temperature;BME280_humidity;BME280_pressure;Samples;Min_cycle;Max_cycle;Signal;HPM_P1;HPM_P2
2021/07/07 00:02:13;;;;;;;3.40;2.70;;;27.00;47.20;;;;;;5036069;28;20050;-68
2021/07/07 00:04:39;;;;;;;2.50;2.30;;;27.00;47.00;;;;;;5044575;28;20486;-68
2021/07/07 00:07:04;;;;;;;5.00;2.75;;;27.00;47.10;;;;;;5042316;28;20049;-67
2021/07/07 00:09:30;;;;;;;3.22;2.60;;;27.00;47.10;;;;;;5037599;28;20069;-67
2021/07/07 00:11:56;;;;;;;2.83;2.58;;;27.00;47.20;;;;;;5026397;28;20693;-68
2021/07/07 00:14:22;;;;;;;4.50;3.17;;;27.00;47.00;;;;;;5049674;28;20521;-67
2021/07/07 00:16:47;;;;;;;2.70;2.50;;;27.00;47.10;;;;;;5038951;28;20505;-63
2021/07/07 00:19:13;;;;;;;3.08;2.40;;;27.00;46.90;;;;;;5037427;28;20124;-67
2021/07/07 00:21:39;;;;;;;3.72;2.45;;;26.90;47.10;;;;;;5033343;28;20064;-68
2021/07/07 00:24:04;;;;;;;3.38;2.83;;;26.90;47.30;;;;;;5031997;28;20442;-67
2021/07/07 00:26:30;;;;;;;2.80;2.60;;;26.90;47.50;;;;;;5014549;28;20038;-68
2021/07/07 00:28:56;;;;;;;4.82;2.58;;;26.80;47.60;;;;;;5031283;28;20037;-67
2021/07/07 00:31:22;;;;;;;5.95;3.10;;;26.80;47.70;;;;;;5042847;28;20094;-67
2021/07/07 00:33:47;;;;;;;4.10;2.90;;;26.90;47.70;;;;;;5047187;28;20079;-55
2021/07/07 00:36:13;;;;;;;4.28;2.97;;;26.90;47.90;;;;;;5058931;28;20115;-68
2021/07/07 00:38:38;;;;;;;5.95;4.03;;;26.80;48.10;;;;;;5030826;28;20038;-68
2021/07/07 00:41:04;;;;;;;7.88;6.68;;;26.70;48.90;;;;;;5037420;28;20108;-68
2021/07/07 00:43:30;;;;;;;10.57;9.48;;;26.60;51.20;;;;;;5039523;28;20029;-67
2021/07/07 00:45:55;;;;;;;11.98;10.75;;;26.60;53.10;;;;;;5041967;28;20040;-67
2021/07/07 00:48:21;;;;;;;12.35;11.15;;;26.70;53.80;;;;;;5040029;28;20396;-67
2021/07/07 00:50:49;;;;;;;12.82;11.07;;;26.60;54.80;;;;;;5041091;28;20045;-67
2021/07/07 00:53:16;;;;;;;15.02;12.13;;;26.70;55.70;;;;;;5044137;28;20036;-67
2021/07/07 00:55:43;;;;;;;13.93;12.50;;;26.60;57.20;;;;;;5032804;28;20145;-67
2021/07/07 00:58:10;;;;;;;14.63;13.23;;;26.50;59.20;;;;;;5027355;28;20479;-67
2021/07/07 01:00:38;;;;;;;15.80;13.60;;;26.40;60.10;;;;;;5029627;28;20380;-67
2021/07/07 01:03:05;;;;;;;14.68;12.88;;;26.40;60.30;;;;;;5025583;28;20095;-67
2021/07/07 01:05:30;;;;;;;17.30;15.60;;;26.50;60.70;;;;;;5030878;28;20128;-68
2021/07/07 01:07:56;;;;;;;16.50;14.90;;;26.50;61.60;;;;;;5031325;28;20124;-66
2021/07/07 01:10:22;;;;;;;18.50;16.48;;;26.30;62.90;;;;;;5035556;28;20136;-67
2021/07/07 01:12:48;;;;;;;18.60;15.98;;;26.30;64.60;;;;;;5029768;28;20417;-59
2021/07/07 01:15:17;;;;;;;18.63;16.73;;;26.30;65.90;;;;;;5048897;28;20128;-68
2021/07/07 01:17:43;;;;;;;16.90;15.30;;;26.20;68.60;;;;;;5041372;28;20041;-67
2021/07/07 01:20:15;;;;;;;18.73;16.92;;;26.20;68.00;;;;;;5044394;28;20154;-68
2021/07/07 01:22:42;;;;;;;19.08;17.33;;;26.10;70.40;;;;;;5046349;28;20041;-68
2021/07/07 01:25:10;;;;;;;19.63;17.80;;;26.10;71.90;;;;;;5029855;28;20074;-67
2021/07/07 01:27:37;;;;;;;20.75;18.02;;;26.00;73.10;;;;;;5036788;28;20494;-67
2021/07/07 01:30:10;;;;;;;18.98;17.23;;;26.10;73.30;;;;;;5034664;28;20138;-67
2021/07/07 01:32:36;;;;;;;19.65;17.83;;;26.10;75.40;;;;;;5028807;28;20049;-67
2021/07/07 01:35:03;;;;;;;20.13;18.23;;;26.00;74.40;;;;;;5040662;28;20476;-68
2021/07/07 01:37:29;;;;;;;18.15;16.30;;;26.00;75.50;;;;;;5041327;28;20501;-68
2021/07/07 01:39:55;;;;;;;18.48;16.75;;;25.90;75.80;;;;;;5048854;28;20156;-68
2021/07/07 01:42:21;;;;;;;21.15;19.20;;;25.90;76.60;;;;;;5029946;28;20472;-68
2021/07/07 01:44:46;;;;;;;20.00;18.00;;;25.90;77.40;;;;;;5041772;28;20041;-69
2021/07/07 01:47:12;;;;;;;20.90;18.83;;;25.80;79.30;;;;;;5034419;28;20128;-68
2021/07/07 01:49:38;;;;;;;19.77;17.85;;;25.80;79.10;;;;;;5040359;28;20075;-68
2021/07/07 01:52:04;;;;;;;21.02;18.92;;;25.80;79.90;;;;;;5046756;28;20045;-68
2021/07/07 01:54:29;;;;;;;20.40;18.50;;;25.80;79.20;;;;;;5042303;28;20038;-68
2021/07/07 01:56:55;;;;;;;18.90;17.10;;;25.80;79.70;;;;;;5032068;28;20040;-68
2021/07/07 01:59:21;;;;;;;18.40;16.60;;;25.70;80.50;;;;;;5043731;28;20025;-67
2021/07/07 02:01:46;;;;;;;18.33;16.45;;;25.70;81.10;;;;;;5041484;28;20048;-68
2021/07/07 02:04:12;;;;;;;18.17;16.48;;;25.60;82.30;;;;;;5036046;28;20033;-68
2021/07/07 02:06:37;;;;;;;17.92;16.15;;;25.70;81.60;;;;;;5036662;28;20072;-68
2021/07/07 02:09:05;;;;;;;19.45;17.15;;;25.70;81.50;;;;;;5037204;28;20030;-68
2021/07/07 02:11:32;;;;;;;18.98;17.02;;;25.50;84.00;;;;;;5027187;28;20072;-69
2021/07/07 02:13:57;;;;;;;18.92;17.13;;;25.60;83.40;;;;;;5027394;28;20080;-68
2021/07/07 02:16:23;;;;;;;20.38;16.95;;;25.60;82.90;;;;;;5025341;28;20060;-68
2021/07/07 02:18:48;;;;;;;18.13;16.42;;;25.60;82.70;;;;;;5037833;28;20046;-66
2021/07/07 02:21:14;;;;;;;15.95;14.55;;;25.60;82.50;;;;;;5026649;28;20570;-66
2021/07/07 02:23:40;;;;;;;18.63;16.73;;;25.50;83.40;;;;;;5047117;28;20073;-67
2021/07/07 02:26:05;;;;;;;17.85;16.15;;;25.40;84.00;;;;;;5041329;28;20050;-67
2021/07/07 02:28:31;;;;;;;22.65;15.13;;;25.40;84.50;;;;;;5036438;28;20091;-67
2021/07/07 02:30:57;;;;;;;17.13;15.63;;;25.40;84.40;;;;;;5030287;28;20415;-67
2021/07/07 02:33:24;;;;;;;16.02;14.38;;;25.30;87.00;;;;;;5026425;28;20052;-68
2021/07/07 02:35:51;;;;;;;17.17;15.38;;;25.30;86.20;;;;;;5063412;28;20048;-68
2021/07/07 02:38:20;;;;;;;16.23;14.57;;;25.30;85.20;;;;;;5045225;28;20390;-68
2021/07/07 02:40:48;;;;;;;16.73;14.77;;;25.30;85.10;;;;;;5046544;28;20037;-67
2021/07/07 02:43:14;;;;;;;16.33;14.73;;;25.40;85.10;;;;;;5029434;28;20048;-67
2021/07/07 02:45:41;;;;;;;16.45;14.75;;;25.50;83.80;;;;;;5046815;28;20471;-67
2021/07/07 02:48:08;;;;;;;15.48;14.07;;;25.40;83.80;;;;;;5043418;28;20029;-67
2021/07/07 02:50:34;;;;;;;15.25;13.80;;;25.40;84.20;;;;;;5034319;28;20045;-68
2021/07/07 02:53:00;;;;;;;14.85;13.38;;;25.30;83.80;;;;;;5024806;28;20520;-68
2021/07/07 02:55:26;;;;;;;14.90;13.40;;;25.30;84.10;;;;;;5027097;28;20121;-67
2021/07/07 02:57:56;;;;;;;16.92;14.20;;;25.30;83.80;;;;;;5029694;28;20040;-67
2021/07/07 03:00:22;;;;;;;15.63;14.15;;;25.30;83.80;;;;;;5013197;28;20029;-66
2021/07/07 03:02:48;;;;;;;15.63;14.13;;;25.30;83.50;;;;;;5031353;28;20589;-59
2021/07/07 03:05:13;;;;;;;15.55;14.02;;;25.30;82.70;;;;;;5039912;28;20128;-67
2021/07/07 03:07:39;;;;;;;14.80;13.50;;;25.30;82.60;;;;;;5045990;28;20045;-67
2021/07/07 03:10:09;;;;;;;14.13;12.82;;;25.20;83.00;;;;;;5028526;28;20041;-67
2021/07/07 03:12:35;;;;;;;14.27;12.90;;;25.30;83.00;;;;;;5025623;28;20116;-68
2021/07/07 03:15:01;;;;;;;14.93;13.30;;;25.20;82.70;;;;;;5024336;28;20507;-69
2021/07/07 03:17:28;;;;;;;13.13;11.95;;;25.20;82.30;;;;;;5029983;28;20069;-68
2021/07/07 03:19:53;;;;;;;14.05;12.80;;;25.20;82.10;;;;;;5026577;28;20039;-68
2021/07/07 03:22:19;;;;;;;14.60;13.07;;;25.20;82.00;;;;;;5031160;28;20071;-66
2021/07/07 03:24:45;;;;;;;14.35;12.82;;;25.10;82.00;;;;;;5040399;28;20430;-68
2021/07/07 03:27:11;;;;;;;13.60;12.30;;;25.20;81.90;;;;;;5042285;28;20036;-68
2021/07/07 03:29:36;;;;;;;14.05;12.65;;;25.00;82.20;;;;;;5034704;28;20068;-67
2021/07/07 03:32:03;;;;;;;14.43;12.93;;;25.10;81.90;;;;;;5032270;28;20034;-67
2021/07/07 03:34:28;;;;;;;13.52;12.23;;;25.10;81.80;;;;;;5038161;28;20109;-66
2021/07/07 03:36:54;;;;;;;14.63;13.05;;;25.10;81.50;;;;;;5045396;28;20466;-67
2021/07/07 03:39:19;;;;;;;16.35;13.73;;;25.10;81.20;;;;;;5027590;28;20033;-66
2021/07/07 03:41:45;;;;;;;13.40;12.23;;;25.10;80.80;;;;;;5047142;28;20037;-69
2021/07/07 03:44:11;;;;;;;13.90;12.63;;;25.10;81.50;;;;;;5039614;28;20038;-67
2021/07/07 03:46:36;;;;;;;14.60;13.20;;;25.10;81.60;;;;;;5036547;28;20037;-68
2021/07/07 03:49:02;;;;;;;13.60;12.40;;;25.00;82.00;;;;;;5026587;28;20037;-68
2021/07/07 03:51:27;;;;;;;13.85;12.40;;;25.00;81.00;;;;;;5035110;28;20052;-68
2021/07/07 03:53:53;;;;;;;13.13;11.82;;;25.00;80.60;;;;;;5027087;28;20033;-68
2021/07/07 03:56:19;;;;;;;12.57;11.43;;;25.00;80.30;;;;;;5035419;28;20034;-65
2021/07/07 03:58:44;;;;;;;13.30;12.00;;;25.00;79.70;;;;;;5028144;28;20121;-69
2021/07/07 04:01:10;;;;;;;13.05;11.75;;;25.10;79.00;;;;;;5031990;28;20483;-68
2021/07/07 04:03:36;;;;;;;13.25;11.93;;;25.10;78.70;;;;;;5033666;28;20045;-67
2021/07/07 04:06:01;;;;;;;11.07;10.07;;;25.10;78.60;;;;;;5030497;28;20083;-68
2021/07/07 04:08:27;;;;;;;11.38;10.27;;;25.00;78.40;;;;;;5039743;28;20521;-67
2021/07/07 04:10:53;;;;;;;10.85;9.75;;;25.10;78.00;;;;;;5022683;28;20045;-67
2021/07/07 04:13:18;;;;;;;10.40;9.38;;;25.00;77.30;;;;;;5027924;28;20379;-59
2021/07/07 04:15:44;;;;;;;11.18;10.18;;;25.00;76.50;;;;;;5025664;28;20065;-67
2021/07/07 04:18:10;;;;;;;10.88;9.80;;;25.10;76.30;;;;;;5041233;28;20466;-68
2021/07/07 04:20:36;;;;;;;10.27;9.30;;;25.10;76.50;;;;;;5036387;28;20036;-67
2021/07/07 04:23:02;;;;;;;9.43;8.40;;;25.10;75.60;;;;;;5036819;28;20044;-68
2021/07/07 04:25:27;;;;;;;10.10;8.93;;;25.10;74.70;;;;;;5043055;28;20037;-67
2021/07/07 04:27:53;;;;;;;9.82;8.82;;;25.20;74.30;;;;;;5044082;28;20382;-67
2021/07/07 04:30:19;;;;;;;8.80;8.02;;;25.10;73.80;;;;;;5038743;28;20132;-64
2021/07/07 04:32:47;;;;;;;10.35;8.50;;;25.10;73.50;;;;;;5027936;28;20044;-67
2021/07/07 04:35:16;;;;;;;11.13;8.88;;;25.20;73.50;;;;;;5039344;28;20037;-68
2021/07/07 04:37:42;;;;;;;9.05;7.95;;;25.20;72.50;;;;;;5022939;28;20384;-68
2021/07/07 04:40:09;;;;;;;8.75;7.85;;;25.30;72.50;;;;;;5039814;28;22040;-68
2021/07/07 04:42:35;;;;;;;9.23;8.43;;;25.30;72.50;;;;;;5032516;28;20062;-68
2021/07/07 04:45:01;;;;;;;9.57;8.57;;;25.20;72.80;;;;;;5043204;28;20398;-69
2021/07/07 04:47:26;;;;;;;10.48;8.75;;;25.20;72.80;;;;;;5036774;28;20063;-68
2021/07/07 04:49:52;;;;;;;9.23;8.30;;;25.20;72.80;;;;;;5037624;28;20053;-69
2021/07/07 04:52:17;;;;;;;8.95;8.15;;;25.30;72.60;;;;;;5042201;28;20032;-69
2021/07/07 04:54:43;;;;;;;10.55;9.27;;;25.30;72.40;;;;;;5049151;28;20037;-68
2021/07/07 04:57:09;;;;;;;9.82;8.57;;;25.30;71.90;;;;;;5043301;28;20463;-67
2021/07/07 04:59:35;;;;;;;9.57;8.70;;;25.20;71.80;;;;;;5049884;28;20111;-68
2021/07/07 05:02:00;;;;;;;11.55;9.38;;;25.20;71.50;;;;;;5035696;28;20121;-67
2021/07/07 05:04:26;;;;;;;10.32;9.32;;;25.20;71.70;;;;;;5032267;28;20454;-66
2021/07/07 05:06:52;;;;;;;11.75;9.02;;;25.20;71.80;;;;;;5036391;28;20057;-67
2021/07/07 05:09:17;;;;;;;8.73;7.75;;;25.10;72.40;;;;;;5040659;28;20094;-68
2021/07/07 05:11:43;;;;;;;9.18;7.88;;;25.20;71.80;;;;;;5037664;28;20125;-67
2021/07/07 05:14:08;;;;;;;9.10;8.20;;;25.20;71.90;;;;;;5046520;28;20124;-68
2021/07/07 05:16:34;;;;;;;10.55;9.27;;;25.20;72.00;;;;;;5051302;28;20048;-68
2021/07/07 05:19:00;;;;;;;9.15;8.25;;;25.20;72.60;;;;;;5026271;28;20041;-68
2021/07/07 05:21:25;;;;;;;10.25;9.25;;;25.30;72.00;;;;;;5027475;28;20484;-68
2021/07/07 05:23:51;;;;;;;10.40;9.40;;;25.30;71.60;;;;;;5026456;28;20033;-68
2021/07/07 05:26:16;;;;;;;9.18;8.20;;;25.30;71.90;;;;;;5046548;28;20060;-68
2021/07/07 05:28:42;;;;;;;10.20;9.18;;;25.30;71.60;;;;;;5041085;28;20045;-69
2021/07/07 05:31:08;;;;;;;10.07;9.13;;;25.30;72.10;;;;;;5046220;28;20085;-69
2021/07/07 05:33:35;;;;;;;11.55;10.10;;;25.30;72.20;;;;;;5028705;28;20037;-67
2021/07/07 05:36:06;;;;;;;10.82;9.82;;;25.40;72.30;;;;;;5042469;28;20047;-68
2021/07/07 05:38:32;;;;;;;10.70;9.57;;;25.40;72.20;;;;;;5029204;28;20128;-68
2021/07/07 05:40:59;;;;;;;9.20;8.20;;;25.40;72.10;;;;;;5033816;28;20474;-68
2021/07/07 05:43:25;;;;;;;10.00;9.00;;;25.50;72.10;;;;;;5040725;28;20032;-67
2021/07/07 05:45:51;;;;;;;10.40;9.40;;;25.50;72.30;;;;;;5024592;28;20075;-67
2021/07/07 05:48:17;;;;;;;11.07;9.68;;;25.50;72.00;;;;;;5053874;28;20032;-67
2021/07/07 05:50:42;;;;;;;13.95;11.13;;;25.60;71.60;;;;;;5028408;28;20487;-68
2021/07/07 05:53:08;;;;;;;12.60;11.30;;;25.50;72.00;;;;;;5041064;28;20381;-67
2021/07/07 05:55:33;;;;;;;10.95;9.88;;;25.50;71.90;;;;;;5038823;28;20116;-69
2021/07/07 05:57:59;;;;;;;11.52;10.32;;;25.60;71.80;;;;;;5037405;28;20060;-68
2021/07/07 06:00:26;;;;;;;11.57;10.50;;;25.60;71.50;;;;;;5025052;28;20044;-68
2021/07/07 06:02:54;;;;;;;13.10;10.48;;;25.70;71.80;;;;;;5047560;28;20056;-68
2021/07/07 06:05:20;;;;;;;11.35;10.15;;;25.80;71.80;;;;;;5045106;28;20135;-68
2021/07/07 06:07:46;;;;;;;11.65;10.45;;;25.80;71.90;;;;;;5034391;28;20033;-68
2021/07/07 06:10:15;;;;;;;11.63;9.48;;;25.80;71.50;;;;;;5035043;28;20371;-68
2021/07/07 06:12:42;;;;;;;11.60;10.45;;;25.80;71.90;;;;;;5038290;28;20052;-68
2021/07/07 06:15:10;;;;;;;13.95;11.30;;;25.70;71.60;;;;;;5032846;28;20170;-68
2021/07/07 06:17:36;;;;;;;12.05;10.85;;;25.80;71.20;;;;;;5045149;28;20059;-69
2021/07/07 06:20:03;;;;;;;11.13;10.02;;;25.80;71.10;;;;;;5031533;28;20041;-69
2021/07/07 06:22:29;;;;;;;11.10;9.98;;;25.90;70.70;;;;;;5043786;28;20033;-69
2021/07/07 06:24:54;;;;;;;14.30;10.77;;;25.90;70.50;;;;;;5043868;28;20079;-67
2021/07/07 06:27:20;;;;;;;11.98;10.70;;;25.90;70.70;;;;;;5029228;28;20040;-68
2021/07/07 06:29:46;;;;;;;12.80;10.40;;;26.00;70.30;;;;;;5044738;28;20114;-68
2021/07/07 06:32:14;;;;;;;10.73;9.73;;;26.10;69.80;;;;;;5037824;28;20124;-69
2021/07/07 06:34:39;;;;;;;11.45;9.05;;;26.00;69.90;;;;;;5035942;28;20076;-69
2021/07/07 06:37:06;;;;;;;10.02;8.38;;;26.10;69.80;;;;;;5037293;28;20169;-68
2021/07/07 06:39:31;;;;;;;10.15;8.98;;;26.30;69.40;;;;;;5040732;28;20037;-68
2021/07/07 06:41:57;;;;;;;9.93;8.65;;;26.30;69.20;;;;;;5027235;28;20056;-67
2021/07/07 06:44:22;;;;;;;13.00;8.52;;;26.30;68.70;;;;;;5051031;28;20045;-66
2021/07/07 06:46:48;;;;;;;11.93;9.00;;;26.40;68.50;;;;;;5047162;28;20041;-67
2021/07/07 06:49:14;;;;;;;9.98;8.93;;;26.40;68.40;;;;;;5031455;28;20095;-67
2021/07/07 06:51:39;;;;;;;12.15;7.90;;;26.50;68.20;;;;;;5022436;28;20057;-67
2021/07/07 06:54:05;;;;;;;11.13;9.35;;;26.60;68.10;;;;;;5021585;28;20045;-68
2021/07/07 06:56:31;;;;;;;12.82;9.35;;;26.60;67.80;;;;;;5032419;28;20142;-68
2021/07/07 06:58:57;;;;;;;12.07;9.43;;;26.60;67.40;;;;;;5031121;28;20112;-68
2021/07/07 07:01:22;;;;;;;11.25;10.07;;;26.70;67.00;;;;;;5047627;28;20090;-68
2021/07/07 07:03:48;;;;;;;11.27;10.18;;;26.70;67.00;;;;;;5031373;28;20068;-69
2021/07/07 07:06:13;;;;;;;14.90;11.25;;;26.80;66.30;;;;;;5022221;28;20041;-68
2021/07/07 07:08:39;;;;;;;11.00;8.43;;;26.70;65.80;;;;;;5022159;28;20046;-68
2021/07/07 07:11:05;;;;;;;10.98;9.88;;;26.70;66.10;;;;;;5034249;28;20051;-68
2021/07/07 07:13:30;;;;;;;11.05;9.27;;;26.80;65.70;;;;;;5025708;28;20039;-66
2021/07/07 07:15:56;;;;;;;11.85;10.50;;;26.70;65.80;;;;;;5031093;28;20049;-67
2021/07/07 07:18:22;;;;;;;10.43;9.23;;;26.70;66.00;;;;;;5028622;28;20040;-66
2021/07/07 07:20:47;;;;;;;9.05;8.25;;;26.70;66.20;;;;;;5026550;28;20452;-67
2021/07/07 07:23:14;;;;;;;13.52;9.10;;;26.70;66.00;;;;;;5022346;28;20106;-68
2021/07/07 07:25:40;;;;;;;10.02;8.45;;;26.70;66.10;;;;;;5036233;28;20057;-67
2021/07/07 07:28:05;;;;;;;13.13;9.00;;;26.70;66.30;;;;;;5042893;28;20332;-67
2021/07/07 07:30:31;;;;;;;8.60;7.60;;;26.70;66.30;;;;;;5047208;28;20084;-67
2021/07/07 07:32:57;;;;;;;8.63;6.85;;;26.90;65.90;;;;;;5035895;28;20029;-66
2021/07/07 07:35:23;;;;;;;6.85;6.22;;;27.00;65.30;;;;;;5047249;28;20049;-67
2021/07/07 07:37:59;;;;;;;7.57;6.50;;;27.10;64.90;;;;;;5048581;28;20098;-59
2021/07/07 07:40:47;;;;;;;7.25;6.55;;;27.20;64.40;;;;;;5048955;28;20036;-67
2021/07/07 07:43:13;;;;;;;7.93;7.22;;;27.30;63.90;;;;;;5044130;28;20090;-67
2021/07/07 07:45:39;;;;;;;6.82;6.10;;;27.20;63.60;;;;;;5036018;28;20441;-67
2021/07/07 07:48:06;;;;;;;12.02;7.63;;;27.30;63.30;;;;;;5029803;28;20044;-67
2021/07/07 07:50:32;;;;;;;9.85;7.28;;;27.40;62.70;;;;;;5034717;28;20160;-67
2021/07/07 07:52:58;;;;;;;13.02;8.70;;;27.40;62.40;;;;;;5034265;28;20384;-67
2021/07/07 07:55:24;;;;;;;11.07;7.18;;;27.40;62.50;;;;;;5035407;28;20120;-67
2021/07/07 07:57:51;;;;;;;8.23;7.18;;;27.50;62.20;;;;;;5052380;28;20091;-67
2021/07/07 08:00:24;;;;;;;8.00;7.20;;;27.40;62.00;;;;;;5043159;28;20048;-68
2021/07/07 08:02:51;;;;;;;9.95;7.65;;;27.30;61.40;;;;;;5044285;28;20083;-67
2021/07/07 08:05:17;;;;;;;7.32;6.63;;;27.30;62.10;;;;;;5026419;28;20048;-68
2021/07/07 08:07:43;;;;;;;11.38;7.45;;;27.40;61.50;;;;;;5036213;28;20091;-69
2021/07/07 08:10:11;;;;;;;9.40;8.57;;;27.50;61.50;;;;;;5039334;28;20057;-69
2021/07/07 08:12:37;;;;;;;10.68;7.90;;;27.50;61.20;;;;;;5039847;28;20158;-68
2021/07/07 08:15:04;;;;;;;9.45;7.70;;;27.50;61.20;;;;;;5032742;28;20187;-68
2021/07/07 08:17:30;;;;;;;13.18;8.38;;;27.70;61.10;;;;;;5038810;28;20048;-68
2021/07/07 08:19:56;;;;;;;10.35;8.05;;;27.80;60.40;;;;;;5037468;28;20112;-68
2021/07/07 08:22:22;;;;;;;8.98;6.38;;;27.80;59.90;;;;;;5049356;28;20371;-68
2021/07/07 08:24:48;;;;;;;7.85;7.07;;;27.80;59.00;;;;;;5049395;28;20108;-68
2021/07/07 08:27:13;;;;;;;10.95;8.23;;;27.90;59.10;;;;;;5041281;28;20051;-68
2021/07/07 08:29:39;;;;;;;7.63;6.75;;;28.00;58.90;;;;;;5048659;28;20051;-68
2021/07/07 08:32:06;;;;;;;8.90;7.85;;;28.10;58.70;;;;;;5029612;28;20160;-68
2021/07/07 08:34:33;;;;;;;7.80;7.00;;;28.10;58.40;;;;;;5042809;28;20040;-68
2021/07/07 08:36:59;;;;;;;8.63;7.40;;;28.20;58.40;;;;;;5039109;28;20047;-68
2021/07/07 08:39:26;;;;;;;7.00;6.35;;;28.20;58.10;;;;;;5030652;28;20479;-68
2021/07/07 08:41:52;;;;;;;7.82;7.13;;;28.30;58.20;;;;;;5022251;28;20548;-67
2021/07/07 08:44:17;;;;;;;8.82;8.02;;;28.30;57.90;;;;;;5030373;28;20128;-69
2021/07/07 08:46:43;;;;;;;7.97;7.18;;;28.30;57.90;;;;;;5034817;28;20079;-68
2021/07/07 08:49:09;;;;;;;9.35;7.38;;;28.30;57.50;;;;;;5050154;28;20092;-68
2021/07/07 08:51:40;;;;;;;8.45;7.00;;;28.40;57.50;;;;;;5025507;28;20037;-68
2021/07/07 08:54:07;;;;;;;7.82;7.20;;;28.50;57.00;;;;;;5035723;28;20040;-68
2021/07/07 08:56:38;;;;;;;5.55;5.10;;;28.50;56.30;;;;;;5028653;28;20482;-68
2021/07/07 08:59:03;;;;;;;7.32;6.25;;;28.60;55.60;;;;;;5038893;28;20025;-68
2021/07/07 09:01:29;;;;;;;5.82;5.32;;;28.50;55.20;;;;;;5029246;28;20128;-67
2021/07/07 09:03:54;;;;;;;6.90;6.20;;;28.60;54.60;;;;;;5038312;28;20033;-68
2021/07/07 09:06:20;;;;;;;5.30;4.45;;;28.60;54.80;;;;;;5034736;28;20107;-67
2021/07/07 09:08:48;;;;;;;4.95;4.53;;;28.70;54.70;;;;;;5025606;28;20433;-68
2021/07/07 09:11:16;;;;;;;5.10;4.70;;;28.80;54.20;;;;;;5037643;28;20064;-68
2021/07/07 09:13:41;;;;;;;6.32;5.72;;;28.80;53.90;;;;;;5026708;28;20038;-67
2021/07/07 09:16:19;;;;;;;5.90;5.28;;;28.90;54.30;;;;;;5028583;28;20045;-68
2021/07/07 09:18:45;;;;;;;6.40;5.45;;;29.00;54.30;;;;;;5033242;28;20075;-68
2021/07/07 09:21:30;;;;;;;6.03;5.30;;;29.00;54.20;;;;;;5039012;28;20044;-68
2021/07/07 09:23:58;;;;;;;6.95;5.70;;;29.10;53.20;;;;;;5026005;28;20029;-68
2021/07/07 09:26:33;;;;;;;7.40;4.20;;;29.10;53.10;;;;;;5036691;28;20052;-68
2021/07/07 09:29:00;;;;;;;4.63;4.30;;;29.20;52.00;;;;;;5032787;28;20076;-68
2021/07/07 09:31:32;;;;;;;4.45;3.15;;;29.30;51.40;;;;;;5036028;28;20045;-68
2021/07/07 09:34:16;;;;;;;3.40;3.10;;;29.50;49.00;;;;;;5040381;28;20375;-68
2021/07/07 09:36:45;;;;;;;5.20;3.60;;;29.50;48.30;;;;;;5048440;28;20124;-68
2021/07/07 09:39:10;;;;;;;6.45;4.43;;;29.60;49.00;;;;;;5044290;28;20056;-69
2021/07/07 09:41:37;;;;;;;6.50;3.83;;;29.70;49.10;;;;;;5039299;28;20037;-66
2021/07/07 09:44:03;;;;;;;6.72;4.18;;;29.80;48.50;;;;;;5040938;28;20131;-69
2021/07/07 09:46:29;;;;;;;3.53;2.90;;;29.80;48.20;;;;;;5040104;28;20167;-68
2021/07/07 09:48:54;;;;;;;5.45;3.72;;;29.70;46.90;;;;;;5035878;28;20402;-66
2021/07/07 09:51:20;;;;;;;4.30;3.38;;;29.70;47.50;;;;;;5050465;28;20053;-67
2021/07/07 09:53:47;;;;;;;11.07;10.00;;;29.80;47.30;;;;;;5044477;28;20581;-66
2021/07/07 09:56:12;;;;;;;7.68;5.90;;;29.90;48.00;;;;;;5059903;28;20493;-67
2021/07/07 09:58:38;;;;;;;11.88;10.95;;;29.90;48.10;;;;;;5034289;28;20033;-66
2021/07/07 10:01:04;;;;;;;9.82;9.02;;;30.00;47.50;;;;;;5039388;28;20113;-67
2021/07/07 10:03:31;;;;;;;9.00;5.30;;;30.10;47.70;;;;;;5041323;28;20036;-67
2021/07/07 10:05:58;;;;;;;5.38;4.82;;;30.10;47.40;;;;;;5026987;28;20037;-67
2021/07/07 10:08:25;;;;;;;5.25;3.78;;;30.20;47.40;;;;;;5035788;28;20044;-67
2021/07/07 10:10:51;;;;;;;4.35;3.92;;;30.30;47.10;;;;;;5024195;28;20049;-65
2021/07/07 10:13:16;;;;;;;4.13;2.97;;;30.40;46.30;;;;;;5023703;28;20451;-68
2021/07/07 10:15:42;;;;;;;5.20;3.13;;;30.60;44.50;;;;;;5037628;28;20045;-68
2021/07/07 10:18:08;;;;;;;3.75;3.45;;;30.50;44.80;;;;;;5027107;28;20033;-67
2021/07/07 10:20:35;;;;;;;4.00;3.10;;;30.60;44.90;;;;;;5026104;28;20112;-67
2021/07/07 10:23:02;;;;;;;4.47;2.92;;;30.90;44.50;;;;;;5029755;28;20034;-67
2021/07/07 10:25:30;;;;;;;5.38;2.47;;;30.90;43.50;;;;;;5042424;28;20551;-68
2021/07/07 10:28:07;;;;;;;3.17;2.40;;;31.00;42.50;;;;;;5044991;28;20627;-67
2021/07/07 10:31:00;;;;;;;4.30;3.38;;;31.10;42.20;;;;;;5027077;28;20053;-67
2021/07/07 10:33:28;;;;;;;2.72;2.47;;;31.00;41.10;;;;;;5027159;28;20037;-67
2021/07/07 10:36:12;;;;;;;2.67;2.47;;;31.00;41.10;;;;;;5031846;28;20184;-67
2021/07/07 10:38:38;;;;;;;3.45;2.80;;;31.20;40.90;;;;;;5039667;28;20060;-67
2021/07/07 10:41:04;;;;;;;3.25;3.05;;;31.30;41.10;;;;;;5029721;28;20061;-67
2021/07/07 10:43:45;;;;;;;4.75;2.65;;;31.30;40.60;;;;;;5035303;28;20391;-67
2021/07/07 10:46:12;;;;;;;3.88;2.90;;;31.60;39.10;;;;;;5033050;28;20041;-69
2021/07/07 10:48:38;;;;;;;4.65;2.60;;;31.80;39.90;;;;;;5026133;28;20487;-67
2021/07/07 10:51:09;;;;;;;4.20;3.22;;;31.70;39.70;;;;;;5028013;28;20059;-66
2021/07/07 10:53:36;;;;;;;3.20;2.90;;;31.70;39.10;;;;;;5040802;28;20041;-66
2021/07/07 10:56:05;;;;;;;3.78;2.65;;;32.00;39.90;;;;;;5034362;28;20037;-66
2021/07/07 10:58:36;;;;;;;2.97;2.60;;;32.00;39.00;;;;;;5027888;28;20112;-67
2021/07/07 11:01:23;;;;;;;2.83;2.63;;;33.30;37.90;;;;;;5026823;28;20462;-66
2021/07/07 11:04:00;;;;;;;5.05;2.90;;;35.00;35.80;;;;;;5030409;28;20033;-67
2021/07/07 11:06:27;;;;;;;4.53;4.22;;;36.70;32.80;;;;;;5012383;28;20125;-66
2021/07/07 11:09:09;;;;;;;3.97;3.53;;;38.00;31.50;;;;;;5033958;28;20475;-66
2021/07/07 11:11:37;;;;;;;3.15;2.85;;;39.10;28.40;;;;;;5031769;28;20046;-67
2021/07/07 11:14:13;;;;;;;3.75;3.47;;;39.80;27.80;;;;;;5037277;28;20473;-67
2021/07/07 11:17:03;;;;;;;2.78;2.60;;;38.30;27.50;;;;;;5036559;28;20091;-67
2021/07/07 11:19:47;;;;;;;5.40;2.97;;;38.00;29.30;;;;;;5011883;28;20033;-67
2021/07/07 11:22:15;;;;;;;4.32;2.92;;;36.20;29.60;;;;;;5028552;28;20394;-67
2021/07/07 11:24:46;;;;;;;3.15;2.78;;;34.50;32.30;;;;;;5048655;28;20079;-67
2021/07/07 11:27:12;;;;;;;3.60;3.03;;;33.40;34.20;;;;;;5032669;28;20033;-67
2021/07/07 11:29:37;;;;;;;3.65;3.00;;;34.20;34.40;;;;;;5027974;28;20074;-67
2021/07/07 11:32:27;;;;;;;3.35;2.80;;;34.70;33.50;;;;;;5026173;28;20091;-67
2021/07/07 11:35:23;;;;;;;3.58;3.08;;;35.00;32.90;;;;;;5036497;28;20371;-67
2021/07/07 11:37:57;;;;;;;4.05;3.00;;;34.80;33.00;;;;;;5029508;28;20518;-67
2021/07/07 11:40:23;;;;;;;5.90;3.13;;;34.80;33.00;;;;;;5039596;28;20033;-67
2021/07/07 11:42:54;;;;;;;3.15;2.95;;;34.60;32.40;;;;;;5042646;28;20037;-67
2021/07/07 11:45:21;;;;;;;4.65;3.83;;;34.80;32.00;;;;;;5034057;28;20037;-61
2021/07/07 11:47:59;;;;;;;3.63;3.13;;;35.00;31.70;;;;;;5043379;28;20491;-67
2021/07/07 11:50:26;;;;;;;3.70;3.40;;;35.20;31.60;;;;;;5011591;28;20406;-68
2021/07/07 11:53:03;;;;;;;3.22;2.90;;;35.40;31.60;;;;;;5030593;28;20075;-67
2021/07/07 11:55:56;;;;;;;3.28;3.08;;;35.60;31.20;;;;;;5039977;28;20041;-67
2021/07/07 11:58:31;;;;;;;3.38;2.80;;;36.50;29.30;;;;;;5043033;28;20394;-67
2021/07/07 12:00:59;;;;;;;3.30;3.10;;;38.10;28.50;;;;;;5045770;28;20401;-67
2021/07/07 12:03:26;;;;;;;3.35;3.05;;;39.50;28.20;;;;;;5047464;28;20033;-68
2021/07/07 12:06:03;;;;;;;3.10;2.85;;;40.10;27.20;;;;;;5043285;28;20048;-67
2021/07/07 12:08:35;;;;;;;3.70;3.03;;;41.60;25.80;;;;;;5046183;28;20033;-67
2021/07/07 12:11:19;;;;;;;4.97;3.42;;;41.90;25.20;;;;;;5028487;28;20051;-67
2021/07/07 12:13:47;;;;;;;3.55;3.25;;;42.40;24.20;;;;;;5037984;28;20042;-66
2021/07/07 12:16:20;;;;;;;3.38;3.08;;;42.20;25.00;;;;;;5033186;28;20509;-67
2021/07/07 12:19:11;;;;;;;4.00;3.65;;;42.00;23.90;;;;;;5029326;28;20383;-66
2021/07/07 12:21:44;;;;;;;3.60;3.20;;;42.00;23.20;;;;;;5002221;28;20115;-68
2021/07/07 12:24:13;;;;;;;3.85;3.35;;;41.60;23.70;;;;;;5045789;28;20087;-68
2021/07/07 12:26:41;;;;;;;3.55;3.28;;;41.00;23.70;;;;;;5055622;28;20037;-66
2021/07/07 12:29:14;;;;;;;3.80;3.15;;;41.20;23.80;;;;;;5041785;28;20494;-68
2021/07/07 12:31:41;;;;;;;3.50;3.30;;;41.00;24.00;;;;;;5043276;28;20406;-66
2021/07/07 12:34:08;;;;;;;4.82;3.47;;;40.80;24.70;;;;;;5032200;28;20112;-67
2021/07/07 12:36:37;;;;;;;3.95;3.53;;;41.60;24.70;;;;;;5037935;28;20033;-66
2021/07/07 12:39:13;;;;;;;3.83;3.40;;;41.50;23.90;;;;;;5043098;28;20033;-66
2021/07/07 12:41:42;;;;;;;3.55;3.35;;;42.10;23.00;;;;;;5036694;28;20038;-66